Time;durP1;ratioP1;P1;durP2;ratioP2;P2;SDS_P1;SDS_P2;PMS_P1;PMS_P2;Temp;Humidity;BMP_temperature;BMP_pressure;BME280_temperature;BME280_humidity;BME280_pressure;Samples;Min_cycle;Max_cycle;Signal;HPM_P1;HPM_P2
2022/04/25 00:00:59;;;;;;;3.00;2.80;;;20.90;57.40;;;;;;4984878;28;20053;-16
2022/04/25 00:03:25;;;;;;;3.90;3.60;;;20.90;57.40;;;;;;4968880;28;20412;-16
2022/04/25 00:05:50;;;;;;;4.40;3.60;;;20.90;57.80;;;;;;4975142;28;20047;-17
2022/04/25 00:08:16;;;;;;;3.53;3.33;;;20.80;57.50;;;;;;4974436;28;21252;-16
2022/04/25 00:10:41;;;;;;;3.70;3.40;;;20.80;57.50;;;;;;4977368;28;20053;-17
2022/04/25 00:13:07;;;;;;;3.60;3.30;;;20.90;57.30;;;;;;4972533;28;20055;-17
2022/04/25 00:15:32;;;;;;;3.58;3.38;;;20.90;57.30;;;;;;4959089;28;20039;-16
2022/04/25 00:17:58;;;;;;;3.55;3.28;;;20.90;57.30;;;;;;4977692;28;20043;-16
2022/04/25 00:20:24;;;;;;;3.97;3.55;;;21.00;57.30;;;;;;4973197;28;20126;-17
2022/04/25 00:22:49;;;;;;;3.17;2.92;;;20.90;57.10;;;;;;4958415;28;20051;-16
2022/04/25 00:25:15;;;;;;;3.08;2.88;;;21.00;57.10;;;;;;4989292;28;20073;-16
2022/04/25 00:27:40;;;;;;;3.40;3.20;;;21.00;57.10;;;;;;4972609;28;20077;-16
2022/04/25 00:30:07;;;;;;;3.33;3.03;;;20.90;57.00;;;;;;4977044;28;20035;-16
2022/04/25 00:32:32;;;;;;;3.92;3.58;;;20.90;57.00;;;;;;4974138;28;20069;-16
2022/04/25 00:34:58;;;;;;;3.25;2.95;;;20.90;56.90;;;;;;4976833;28;20039;-16
2022/04/25 00:37:23;;;;;;;12.68;3.20;;;20.90;56.90;;;;;;4977713;28;20057;-18
2022/04/25 00:39:49;;;;;;;3.65;3.35;;;20.90;56.90;;;;;;4977971;28;20039;-17
2022/04/25 00:42:15;;;;;;;3.38;2.90;;;20.90;57.00;;;;;;4963945;28;20059;-17
2022/04/25 00:44:41;;;;;;;3.42;3.22;;;20.90;56.90;;;;;;4989319;28;20039;-17
2022/04/25 00:47:08;;;;;;;3.22;3.03;;;20.90;56.90;;;;;;4966859;28;20110;-18
2022/04/25 00:49:33;;;;;;;3.22;3.03;;;20.90;57.50;;;;;;4974814;28;20047;-16
2022/04/25 00:51:59;;;;;;;3.53;3.22;;;20.90;56.90;;;;;;4988390;28;20109;-16
2022/04/25 00:54:24;;;;;;;2.60;2.50;;;20.90;56.90;;;;;;4961502;28;20043;-17
2022/04/25 00:56:50;;;;;;;3.08;2.80;;;20.90;56.90;;;;;;4977074;28;20070;-17
2022/04/25 00:59:17;;;;;;;3.45;3.25;;;20.90;56.80;;;;;;4975675;28;20050;-17
2022/04/25 01:01:43;;;;;;;3.58;3.38;;;20.80;56.80;;;;;;4977443;28;20499;-17
2022/04/25 01:04:09;;;;;;;3.10;2.88;;;20.80;56.90;;;;;;4971728;28;20046;-16
2022/04/25 01:06:35;;;;;;;2.70;2.60;;;20.80;56.80;;;;;;4969635;28;20047;-16
2022/04/25 01:09:00;;;;;;;3.28;3.08;;;20.80;56.80;;;;;;4975362;28;20138;-16
2022/04/25 01:11:26;;;;;;;3.63;3.33;;;20.80;56.80;;;;;;4968997;28;20054;-16
2022/04/25 01:13:51;;;;;;;2.45;2.35;;;20.80;56.80;;;;;;5004053;28;20063;-17
2022/04/25 01:16:17;;;;;;;3.35;3.15;;;20.80;56.90;;;;;;4973675;28;20120;-16
2022/04/25 01:18:42;;;;;;;3.40;3.17;;;20.70;56.80;;;;;;4976322;28;20043;-17
2022/04/25 01:21:10;;;;;;;2.92;2.72;;;20.80;56.90;;;;;;4976177;28;20181;-16
2022/04/25 01:29:04;;;;;;;;;;;20.80;56.50;;;;;;4983948;28;20043;-16
2022/04/25 01:31:30;;;;;;;3.22;3.03;;;20.80;56.60;;;;;;4954018;28;19918;-17
2022/04/25 01:33:55;;;;;;;3.20;3.00;;;20.80;56.50;;;;;;4957497;28;20043;-16
2022/04/25 01:36:24;;;;;;;3.08;2.78;;;20.80;56.50;;;;;;4956949;28;20080;-16
2022/04/25 01:38:53;;;;;;;3.10;2.90;;;20.80;56.50;;;;;;4957622;28;20501;-17
2022/04/25 01:41:19;;;;;;;3.30;3.00;;;20.80;56.50;;;;;;4956874;28;20045;-17
2022/04/25 01:43:44;;;;;;;3.55;3.35;;;20.70;56.40;;;;;;4950869;28;20043;-16
2022/04/25 01:46:10;;;;;;;3.08;2.88;;;20.80;56.40;;;;;;4955643;28;20062;-16
2022/04/25 01:48:36;;;;;;;2.88;2.67;;;20.70;56.50;;;;;;4957615;28;20888;-17
2022/04/25 01:51:02;;;;;;;2.75;2.60;;;20.70;56.50;;;;;;4987676;28;20424;-17
2022/04/25 01:53:27;;;;;;;2.78;2.67;;;20.70;56.50;;;;;;4950440;28;20051;-16
2022/04/25 01:55:53;;;;;;;3.00;2.80;;;20.70;56.50;;;;;;4973681;28;20039;-16
2022/04/25 01:58:19;;;;;;;3.00;2.80;;;20.70;56.40;;;;;;4959018;28;20055;-16
2022/04/25 02:00:45;;;;;;;3.30;3.10;;;20.70;56.50;;;;;;4957330;28;20183;-16
2022/04/25 02:03:11;;;;;;;2.80;2.60;;;20.70;56.50;;;;;;4953115;28;20043;-17
2022/04/25 02:05:37;;;;;;;2.83;2.50;;;20.70;56.40;;;;;;4988106;28;20043;-16
2022/04/25 02:08:02;;;;;;;2.83;2.60;;;20.60;56.50;;;;;;4959677;28;20067;-16
2022/04/25 02:10:28;;;;;;;3.10;2.90;;;20.70;56.50;;;;;;4963681;28;20043;-17
2022/04/25 02:12:54;;;;;;;2.78;2.47;;;20.60;56.50;;;;;;4961753;28;20062;-17
2022/04/25 02:15:20;;;;;;;2.70;2.50;;;20.70;56.70;;;;;;4960503;28;20086;-16
2022/04/25 02:17:45;;;;;;;3.20;2.92;;;20.60;56.60;;;;;;4991420;28;20051;-17
2022/04/25 02:20:12;;;;;;;2.88;2.67;;;20.60;56.50;;;;;;4960462;28;20045;-16
2022/04/25 02:22:37;;;;;;;2.90;2.70;;;20.70;56.50;;;;;;4960676;28;20063;-15
2022/04/25 02:25:03;;;;;;;3.95;3.03;;;20.60;56.60;;;;;;4955639;28;20039;-17
2022/04/25 02:27:29;;;;;;;2.83;2.63;;;20.60;56.70;;;;;;4961125;28;20058;-17
2022/04/25 02:29:58;;;;;;;2.80;2.60;;;20.60;56.70;;;;;;4960579;28;20047;-16
2022/04/25 02:32:24;;;;;;;2.70;2.60;;;20.60;56.70;;;;;;4960271;28;20047;-16
2022/04/25 02:34:53;;;;;;;2.92;2.72;;;20.50;56.90;;;;;;4960830;28;20039;-17
2022/04/25 02:37:19;;;;;;;2.80;2.60;;;20.50;56.80;;;;;;4959896;28;20047;-17
2022/04/25 02:39:44;;;;;;;2.65;2.45;;;20.60;56.70;;;;;;4991763;28;20058;-17
2022/04/25 02:42:10;;;;;;;2.67;2.47;;;20.60;56.60;;;;;;4960140;28;20050;-17
2022/04/25 02:44:35;;;;;;;2.92;2.72;;;20.60;56.90;;;;;;4991817;28;20047;-17
2022/04/25 02:47:01;;;;;;;2.83;2.63;;;20.60;56.70;;;;;;4959988;28;20058;-18
2022/04/25 02:49:27;;;;;;;3.50;3.20;;;20.50;56.70;;;;;;4960529;28;20413;-17
2022/04/25 02:51:52;;;;;;;3.10;2.83;;;20.60;56.80;;;;;;4960321;28;20119;-17
2022/04/25 02:54:18;;;;;;;3.20;3.00;;;20.50;57.30;;;;;;4956248;28;20038;-17
2022/04/25 02:56:43;;;;;;;2.63;2.50;;;20.60;56.60;;;;;;4979866;28;20515;-17
2022/04/25 02:59:09;;;;;;;2.90;2.67;;;20.60;56.70;;;;;;4979186;28;20049;-17
2022/04/25 03:01:35;;;;;;;2.83;2.63;;;20.50;57.30;;;;;;4979758;28;20480;-18
2022/04/25 03:04:00;;;;;;;2.65;2.45;;;20.60;56.70;;;;;;4961093;28;20512;-17
2022/04/25 03:06:26;;;;;;;2.85;2.65;;;20.50;56.70;;;;;;4959483;28;20043;-17
2022/04/25 03:08:52;;;;;;;3.08;2.78;;;20.60;56.70;;;;;;4966760;28;20070;-17
2022/04/25 03:11:17;;;;;;;3.13;2.92;;;20.50;56.80;;;;;;4978739;28;20049;-17
2022/04/25 03:13:43;;;;;;;3.15;2.72;;;20.50;56.90;;;;;;4979567;28;20148;-17
2022/04/25 03:16:09;;;;;;;2.50;2.40;;;20.50;56.70;;;;;;4978613;28;20042;-17
2022/04/25 03:18:34;;;;;;;2.88;2.78;;;20.50;56.90;;;;;;4969747;28;20051;-17
2022/04/25 03:21:00;;;;;;;2.83;2.63;;;20.50;56.80;;;;;;4960081;28;20050;-17
2022/04/25 03:23:26;;;;;;;2.80;2.60;;;20.50;56.80;;;;;;4953425;28;20051;-17
2022/04/25 03:25:52;;;;;;;2.65;2.55;;;20.50;56.80;;;;;;4960072;28;20046;-17
2022/04/25 03:28:17;;;;;;;2.90;2.70;;;20.50;56.80;;;;;;4958044;28;20057;-17
2022/04/25 03:30:43;;;;;;;2.20;2.10;;;20.50;56.90;;;;;;4958224;28;20058;-18
2022/04/25 03:33:12;;;;;;;2.75;2.58;;;20.50;56.80;;;;;;4959525;28;20047;-16
2022/04/25 03:35:41;;;;;;;2.53;2.42;;;20.50;56.80;;;;;;4955242;28;20134;-17
2022/04/25 03:38:07;;;;;;;2.45;2.35;;;20.50;56.90;;;;;;4958905;28;20059;-17
2022/04/25 03:40:34;;;;;;;2.75;2.55;;;20.50;56.80;;;;;;4959543;28;20054;-16
2022/04/25 03:43:00;;;;;;;2.63;2.45;;;20.50;56.70;;;;;;4959653;28;20047;-17
2022/04/25 03:45:26;;;;;;;2.67;2.58;;;20.50;57.00;;;;;;4971154;28;20081;-17
2022/04/25 03:47:53;;;;;;;2.65;2.45;;;20.40;57.00;;;;;;4978842;28;20039;-17
2022/04/25 03:50:18;;;;;;;2.58;2.45;;;20.50;56.70;;;;;;4978210;28;20046;-17
2022/04/25 03:52:45;;;;;;;2.30;2.20;;;20.40;56.70;;;;;;4974079;28;20050;-16
2022/04/25 03:57:59;;;;;;;2.45;2.30;;;20.40;56.70;;;;;;4978749;28;20050;-17
2022/04/25 04:00:24;;;;;;;2.30;2.20;;;20.40;56.60;;;;;;4962339;28;20051;-17
2022/04/25 04:02:50;;;;;;;2.40;2.20;;;20.40;56.70;;;;;;4959342;28;20401;-17
2022/04/25 04:05:16;;;;;;;2.30;2.20;;;20.40;56.60;;;;;;4957177;28;20046;-17
2022/04/25 04:07:41;;;;;;;2.17;2.08;;;20.40;56.60;;;;;;4957208;28;20047;-17
2022/04/25 04:10:08;;;;;;;2.10;2.00;;;20.40;56.60;;;;;;4958575;28;20204;-18
2022/04/25 04:12:34;;;;;;;2.08;1.98;;;20.40;56.50;;;;;;4972043;28;20055;-17
2022/04/25 04:15:02;;;;;;;2.40;2.20;;;20.40;56.70;;;;;;4958978;28;20098;-17
2022/04/25 04:17:28;;;;;;;2.13;2.03;;;20.40;56.70;;;;;;4972991;28;20055;-17
2022/04/25 04:19:53;;;;;;;2.28;2.17;;;20.50;56.80;;;;;;4978268;28;20051;-17
2022/04/25 04:22:21;;;;;;;2.30;2.20;;;20.40;56.60;;;;;;4973855;28;20534;-17
2022/04/25 04:24:46;;;;;;;2.63;2.42;;;20.40;56.80;;;;;;4958877;28;20047;-17
2022/04/25 04:27:14;;;;;;;2.50;2.30;;;20.40;56.70;;;;;;4958265;28;20063;-17
2022/04/25 04:29:40;;;;;;;2.55;2.45;;;20.40;56.60;;;;;;4958312;28;20047;-17
2022/04/25 04:32:06;;;;;;;2.28;2.17;;;20.40;56.50;;;;;;4952843;28;20182;-17
2022/04/25 04:34:31;;;;;;;2.80;2.60;;;20.40;56.80;;;;;;4957973;28;20115;-17
2022/04/25 04:36:57;;;;;;;2.42;2.33;;;20.40;56.60;;;;;;4958421;28;20040;-17
2022/04/25 04:39:23;;;;;;;2.67;2.58;;;20.30;56.40;;;;;;4957570;28;20043;-17
2022/04/25 04:41:48;;;;;;;3.05;2.85;;;20.40;56.40;;;;;;4958513;28;20048;-16
2022/04/25 04:44:14;;;;;;;2.45;2.35;;;20.30;56.90;;;;;;4957748;28;20567;-17
2022/04/25 04:46:40;;;;;;;2.70;2.50;;;20.20;56.70;;;;;;4958397;28;20404;-17
2022/04/25 04:49:06;;;;;;;3.95;3.55;;;20.20;57.20;;;;;;4958086;28;20139;-17
2022/04/25 04:51:31;;;;;;;4.65;4.30;;;20.10;54.70;;;;;;4619981;28;9999758;-17
2022/04/25 04:54:00;;;;;;;5.75;4.80;;;19.80;52.80;;;;;;4973864;28;20053;-16
2022/04/25 04:56:35;;;;;;;6.03;4.97;;;19.60;52.20;;;;;;4973252;28;20035;-16
2022/04/25 04:59:00;;;;;;;7.65;5.43;;;19.40;51.20;;;;;;4970698;28;20047;-17
2022/04/25 05:01:26;;;;;;;4.95;4.60;;;19.40;50.80;;;;;;4973236;28;20125;-17
2022/04/25 05:03:52;;;;;;;5.68;4.80;;;19.30;50.60;;;;;;4980646;28;20135;-17
2022/04/25 05:06:18;;;;;;;5.82;4.95;;;19.30;50.40;;;;;;4966269;28;20118;-16
2022/04/25 05:08:44;;;;;;;8.07;5.40;;;19.30;50.10;;;;;;4975796;28;20106;-17
2022/04/25 05:11:10;;;;;;;6.65;5.35;;;19.20;50.00;;;;;;4969395;28;20046;-16
2022/04/25 05:13:36;;;;;;;6.65;5.15;;;19.10;50.20;;;;;;4968987;28;20074;-17
2022/04/25 05:16:03;;;;;;;7.97;5.13;;;18.80;50.10;;;;;;4972985;28;20054;-16
2022/04/25 05:18:32;;;;;;;5.28;4.72;;;18.80;50.10;;;;;;4959011;28;20058;-17
2022/04/25 05:20:58;;;;;;;6.30;5.50;;;18.60;50.60;;;;;;4986090;28;20046;-16
2022/04/25 05:23:24;;;;;;;6.43;5.20;;;18.60;51.20;;;;;;4960121;28;20499;-17
2022/04/25 05:25:49;;;;;;;5.68;5.18;;;18.60;50.50;;;;;;4962796;28;20495;-16
2022/04/25 05:28:15;;;;;;;5.47;4.90;;;18.40;50.90;;;;;;4969926;28;20050;-16
2022/04/25 05:30:41;;;;;;;10.68;5.25;;;18.40;50.90;;;;;;4968816;28;20078;-17
2022/04/25 05:33:06;;;;;;;9.20;6.03;;;18.40;51.10;;;;;;4968260;28;20623;-16
2022/04/25 05:35:36;;;;;;;7.65;5.32;;;18.30;50.80;;;;;;4966248;28;20066;-19
2022/04/25 05:38:02;;;;;;;7.85;5.45;;;18.30;51.20;;;;;;4962944;28;20129;-19
2022/04/25 05:40:28;;;;;;;5.80;5.30;;;18.20;51.30;;;;;;4960858;28;20077;-19
2022/04/25 05:42:57;;;;;;;9.27;6.30;;;18.00;51.60;;;;;;4961935;28;20055;-19
2022/04/25 05:45:23;;;;;;;6.28;5.78;;;18.00;51.70;;;;;;4961136;28;20050;-19
2022/04/25 05:47:49;;;;;;;7.82;5.15;;;17.90;52.20;;;;;;4960733;28;21296;-18
2022/04/25 05:53:00;;;;;;;9.00;5.50;;;17.70;52.30;;;;;;4962000;28;20551;-19
2022/04/25 05:55:28;;;;;;;6.82;5.10;;;17.60;52.60;;;;;;4959731;28;20077;-19
2022/04/25 05:57:54;;;;;;;6.97;5.55;;;17.60;52.90;;;;;;4961686;28;20054;-18
2022/04/25 06:00:19;;;;;;;6.18;5.57;;;17.50;53.20;;;;;;4959619;28;20062;-18
2022/04/25 06:02:46;;;;;;;7.45;5.53;;;17.40;53.40;;;;;;4962486;28;20117;-19
2022/04/25 06:05:12;;;;;;;7.45;5.95;;;17.30;53.60;;;;;;4961230;28;20051;-19
2022/04/25 06:07:40;;;;;;;6.90;5.32;;;17.30;53.80;;;;;;4959212;28;20046;-19
2022/04/25 06:10:06;;;;;;;7.03;4.75;;;17.30;53.80;;;;;;4961287;28;20054;-18
2022/04/25 06:12:32;;;;;;;7.30;5.28;;;17.30;53.70;;;;;;4961243;28;20066;-18
2022/04/25 06:14:59;;;;;;;7.85;5.38;;;17.40;54.00;;;;;;4959271;28;20806;-18
2022/04/25 06:17:25;;;;;;;7.32;5.57;;;17.30;54.00;;;;;;4959361;28;20055;-18
2022/04/25 06:19:51;;;;;;;8.85;5.57;;;17.20;54.40;;;;;;4961571;28;20061;-18
2022/04/25 06:22:20;;;;;;;6.07;4.80;;;17.30;54.30;;;;;;4961149;28;20070;-18
2022/04/25 06:24:46;;;;;;;8.27;5.13;;;17.00;54.80;;;;;;4962196;28;20071;-18
2022/04/25 06:27:12;;;;;;;8.57;5.60;;;16.90;55.20;;;;;;4959908;28;20814;-18
2022/04/25 06:29:44;;;;;;;6.53;4.80;;;16.90;55.40;;;;;;4961167;28;20952;-18
2022/04/25 06:32:10;;;;;;;8.73;5.30;;;16.80;55.50;;;;;;4961104;28;20057;-18
2022/04/25 06:34:36;;;;;;;8.35;4.93;;;16.80;55.80;;;;;;4959394;28;20078;-17
2022/04/25 06:37:02;;;;;;;8.93;5.30;;;16.90;55.50;;;;;;4959883;28;20072;-17
2022/04/25 06:39:27;;;;;;;11.15;4.72;;;16.80;55.80;;;;;;4961186;28;20047;-17
2022/04/25 06:41:53;;;;;;;8.40;4.95;;;16.90;55.90;;;;;;4971138;28;20066;-18
2022/04/25 06:44:18;;;;;;;6.45;4.30;;;16.80;56.20;;;;;;4968865;28;20049;-19
2022/04/25 06:46:44;;;;;;;7.38;4.50;;;16.90;56.20;;;;;;4970210;28;20146;-18
2022/04/25 06:49:25;;;;;;;6.05;4.57;;;16.80;56.40;;;;;;4967053;28;20100;-17
2022/04/25 06:51:56;;;;;;;7.13;4.32;;;16.90;56.60;;;;;;4968310;28;20051;-18
2022/04/25 06:54:23;;;;;;;5.18;3.97;;;17.00;56.40;;;;;;4964226;28;20042;-18
2022/04/25 06:56:49;;;;;;;4.88;3.72;;;17.00;56.60;;;;;;4978354;28;20046;-18
2022/04/25 06:59:15;;;;;;;3.45;3.15;;;17.20;56.20;;;;;;4979303;28;20039;-18
2022/04/25 07:01:42;;;;;;;5.00;3.78;;;17.40;56.20;;;;;;4976199;28;20074;-18
2022/04/25 07:04:08;;;;;;;6.28;3.90;;;17.40;56.30;;;;;;4978568;28;20046;-18
2022/04/25 07:06:34;;;;;;;4.78;3.67;;;17.50;56.20;;;;;;4976974;28;20043;-17
2022/04/25 07:08:59;;;;;;;5.40;4.05;;;17.40;56.20;;;;;;4979217;28;20559;-17
2022/04/25 07:11:25;;;;;;;6.55;4.05;;;17.40;56.60;;;;;;4970824;28;20133;-16
2022/04/25 07:13:51;;;;;;;7.40;4.30;;;17.50;56.40;;;;;;4977047;28;20051;-18
2022/04/25 07:16:16;;;;;;;3.97;3.58;;;17.60;56.40;;;;;;4975017;28;20105;-16
2022/04/25 07:18:42;;;;;;;4.85;3.78;;;18.00;55.50;;;;;;4973816;28;20050;-16
2022/04/25 07:29:23;;;;;;;4.20;2.90;;;18.50;54.00;;;;;;4978163;28;19937;-18
2022/04/25 07:31:51;;;;;;;4.80;3.30;;;18.20;54.60;;;;;;4977846;28;20038;-17
2022/04/25 07:34:20;;;;;;;4.18;3.25;;;17.90;55.10;;;;;;4976034;28;20043;-17
2022/04/25 07:36:52;;;;;;;3.20;2.70;;;17.80;55.50;;;;;;4999428;28;20043;-17
2022/04/25 07:39:19;;;;;;;6.88;3.22;;;17.70;55.80;;;;;;4972006;28;20527;-17
2022/04/25 07:41:45;;;;;;;4.85;2.75;;;17.80;56.40;;;;;;4972567;28;20043;-17
2022/04/25 07:44:10;;;;;;;5.15;3.25;;;17.70;55.80;;;;;;4959220;28;20047;-17
2022/04/25 07:46:37;;;;;;;4.22;3.17;;;17.80;56.10;;;;;;4959081;28;20036;-18
2022/04/25 07:49:03;;;;;;;3.78;2.63;;;17.80;55.80;;;;;;4972054;28;20050;-18
2022/04/25 07:51:29;;;;;;;4.82;3.08;;;17.80;55.70;;;;;;4976420;28;20039;-18
2022/04/25 07:53:54;;;;;;;3.03;2.83;;;17.80;55.70;;;;;;4975234;28;20057;-18
2022/04/25 07:56:20;;;;;;;3.90;3.15;;;17.90;55.70;;;;;;4977714;28;20043;-18
2022/04/25 07:58:46;;;;;;;6.50;2.70;;;17.90;55.60;;;;;;4964799;28;20059;-18
2022/04/25 08:01:11;;;;;;;3.60;2.80;;;17.90;55.60;;;;;;4974608;28;20046;-18
2022/04/25 08:03:37;;;;;;;3.83;2.95;;;17.90;55.80;;;;;;4964937;28;20054;-18
2022/04/25 08:06:04;;;;;;;5.57;2.97;;;18.00;55.60;;;;;;4975820;28;20042;-17
2022/04/25 08:08:31;;;;;;;6.72;3.03;;;18.00;55.40;;;;;;4973536;28;20058;-17
2022/04/25 08:10:57;;;;;;;5.93;2.85;;;18.00;55.50;;;;;;4967704;28;20047;-18
2022/04/25 08:18:51;;;;;;;2.70;2.50;;;18.10;55.60;;;;;;4975328;28;20114;-17
2022/04/25 08:21:17;;;;;;;4.35;2.72;;;18.20;55.40;;;;;;4977171;28;20070;-18
2022/04/25 08:23:45;;;;;;;3.25;2.70;;;18.30;55.20;;;;;;4975816;28;20141;-17
2022/04/25 08:26:11;;;;;;;2.75;2.28;;;18.40;55.10;;;;;;5008557;28;20105;-18
2022/04/25 08:28:37;;;;;;;2.53;2.30;;;18.50;55.00;;;;;;4972363;28;20053;-18
2022/04/25 08:31:03;;;;;;;3.35;2.08;;;18.50;55.00;;;;;;4965601;28;20125;-18
2022/04/25 08:33:30;;;;;;;3.03;2.83;;;18.60;54.90;;;;;;4963006;28;20047;-18
2022/04/25 08:35:57;;;;;;;3.58;2.22;;;18.60;54.80;;;;;;4977542;28;20042;-18
2022/04/25 08:38:23;;;;;;;2.22;1.98;;;18.70;54.70;;;;;;4972880;28;20043;-18
2022/04/25 08:40:48;;;;;;;2.72;2.03;;;18.70;54.60;;;;;;4976758;28;20042;-17
2022/04/25 08:43:14;;;;;;;2.60;2.38;;;18.70;54.60;;;;;;4977468;28;20042;-17
2022/04/25 08:45:40;;;;;;;2.67;2.50;;;18.70;54.70;;;;;;4998596;28;20097;-16
2022/04/25 08:48:05;;;;;;;3.13;2.00;;;18.70;54.70;;;;;;4976985;28;20102;-16
2022/04/25 08:50:32;;;;;;;2.78;2.13;;;18.80;54.80;;;;;;4975567;28;20038;-17
2022/04/25 08:52:58;;;;;;;3.25;2.20;;;18.80;54.80;;;;;;4976726;28;20488;-16
2022/04/25 08:55:26;;;;;;;2.70;2.17;;;18.80;54.70;;;;;;4973430;28;20403;-16
2022/04/25 08:57:52;;;;;;;1.80;1.70;;;18.90;54.70;;;;;;4970587;28;20055;-17
2022/04/25 09:00:18;;;;;;;2.70;2.50;;;18.90;54.80;;;;;;4975041;28;20039;-16
2022/04/25 09:02:47;;;;;;;1.92;1.83;;;19.00;54.80;;;;;;4962009;28;20089;-16
2022/04/25 09:05:13;;;;;;;2.83;2.22;;;19.00;54.70;;;;;;4975881;28;20043;-16
2022/04/25 09:07:39;;;;;;;2.42;2.05;;;19.00;54.70;;;;;;4973927;28;20555;-16
2022/04/25 09:10:09;;;;;;;2.42;1.88;;;19.10;54.70;;;;;;4966465;28;20078;-16
2022/04/25 09:12:36;;;;;;;2.38;2.17;;;19.10;54.60;;;;;;4970126;28;20047;-17
2022/04/25 09:15:02;;;;;;;2.95;1.80;;;19.10;54.60;;;;;;4976394;28;20047;-16
2022/04/25 09:17:27;;;;;;;2.55;2.00;;;19.20;54.60;;;;;;5006288;28;20038;-17
2022/04/25 09:19:53;;;;;;;2.67;2.00;;;19.30;54.70;;;;;;4975767;28;20039;-17
2022/04/25 09:22:32;;;;;;;3.17;1.98;;;19.30;54.40;;;;;;4974385;28;20073;-16
2022/04/25 09:25:05;;;;;;;2.10;1.90;;;19.30;54.50;;;;;;4976187;28;20109;-17
2022/04/25 09:27:32;;;;;;;2.03;1.67;;;19.20;54.70;;;;;;4964302;28;20129;-17
2022/04/25 09:30:15;;;;;;;2.00;1.80;;;19.30;54.60;;;;;;4965626;28;20078;-19
2022/04/25 09:32:40;;;;;;;1.98;1.77;;;19.30;54.60;;;;;;4987129;28;20046;-19
2022/04/25 09:35:42;;;;;;;2.28;1.90;;;19.40;54.60;;;;;;4971309;28;20046;-19
2022/04/25 09:38:08;;;;;;;2.15;1.60;;;19.40;54.70;;;;;;4963082;28;20043;-18
2022/04/25 09:40:37;;;;;;;2.45;2.05;;;19.40;54.60;;;;;;4975598;28;20057;-19
2022/04/25 09:43:04;;;;;;;2.15;1.80;;;19.40;54.50;;;;;;4960583;28;20111;-18
2022/04/25 09:45:29;;;;;;;2.05;1.73;;;19.50;54.60;;;;;;4969492;28;20055;-20
2022/04/25 09:47:56;;;;;;;2.42;1.60;;;19.50;54.70;;;;;;4971381;28;20058;-21
2022/04/25 09:50:21;;;;;;;1.60;1.50;;;19.50;54.60;;;;;;5002445;28;20171;-19
2022/04/25 09:52:55;;;;;;;2.47;1.52;;;19.50;54.60;;;;;;4975016;28;20047;-19
2022/04/25 09:55:21;;;;;;;2.13;1.92;;;19.50;54.60;;;;;;4974836;28;20047;-18
2022/04/25 09:57:49;;;;;;;2.95;1.90;;;19.50;54.50;;;;;;4969257;28;20047;-18
2022/04/25 10:00:36;;;;;;;1.67;1.50;;;19.60;54.60;;;;;;4966549;28;20047;-18
2022/04/25 10:03:05;;;;;;;1.90;1.80;;;19.60;54.50;;;;;;4975508;28;20070;-18
2022/04/25 10:05:37;;;;;;;1.80;1.67;;;19.60;54.50;;;;;;4972749;28;20093;-20
2022/04/25 10:08:02;;;;;;;1.60;1.50;;;19.70;54.40;;;;;;4973830;28;20574;-17
2022/04/25 10:10:28;;;;;;;1.45;1.35;;;19.70;54.50;;;;;;4974617;28;20424;-16
2022/04/25 10:12:55;;;;;;;1.92;1.63;;;19.70;54.50;;;;;;4975210;28;20045;-16
2022/04/25 10:15:20;;;;;;;2.53;1.63;;;19.70;54.50;;;;;;4971403;28;20062;-16
2022/04/25 10:17:46;;;;;;;1.50;1.40;;;19.70;54.50;;;;;;4975160;28;20038;-16
2022/04/25 10:20:12;;;;;;;1.70;1.60;;;19.70;54.50;;;;;;4976150;28;20043;-17
2022/04/25 10:22:37;;;;;;;1.40;1.30;;;19.70;55.10;;;;;;4985659;28;20052;-17
2022/04/25 10:25:03;;;;;;;1.70;1.60;;;19.70;54.40;;;;;;4956718;28;20497;-16
2022/04/25 10:27:32;;;;;;;4.35;1.63;;;19.80;54.40;;;;;;4974976;28;20043;-16
2022/04/25 10:29:58;;;;;;;1.38;1.30;;;19.80;54.40;;;;;;4978267;28;20046;-16
2022/04/25 10:32:25;;;;;;;1.77;1.40;;;19.80;54.40;;;;;;4975675;28;20199;-16
2022/04/25 10:34:54;;;;;;;1.10;1.10;;;19.80;54.40;;;;;;4977797;28;20054;-17
2022/04/25 10:37:29;;;;;;;1.50;1.40;;;19.80;54.40;;;;;;4977867;28;20042;-17
2022/04/25 10:39:55;;;;;;;2.10;1.27;;;19.80;54.30;;;;;;4974949;28;20051;-16
2022/04/25 10:45:05;;;;;;;;;;;19.90;54.40;;;;;;4978147;28;20093;-17
2022/04/25 10:47:30;;;;;;;0.90;0.90;;;19.90;54.30;;;;;;4968370;28;19922;-17
2022/04/25 10:49:56;;;;;;;1.20;1.10;;;19.90;54.30;;;;;;4997338;28;20039;-17
2022/04/25 10:52:42;;;;;;;1.77;1.38;;;19.90;54.30;;;;;;4976537;28;20094;-17
2022/04/25 10:55:20;;;;;;;1.48;1.10;;;19.90;54.30;;;;;;4978519;28;20046;-17
2022/04/25 10:58:04;;;;;;;1.50;1.40;;;20.00;54.30;;;;;;4978579;28;20046;-17
2022/04/25 11:00:41;;;;;;;1.60;1.50;;;20.00;54.30;;;;;;4959869;28;20055;-16
2022/04/25 11:03:08;;;;;;;1.58;1.33;;;20.00;54.30;;;;;;4961491;28;20054;-17
2022/04/25 11:05:35;;;;;;;1.30;1.20;;;20.00;54.30;;;;;;4971214;28;20133;-17
2022/04/25 11:08:16;;;;;;;1.85;1.38;;;20.00;54.30;;;;;;4977309;28;20500;-16
2022/04/25 11:11:00;;;;;;;1.15;1.10;;;20.00;54.20;;;;;;4978323;28;20523;-17
2022/04/25 11:13:51;;;;;;;0.88;0.82;;;20.00;54.20;;;;;;4967857;28;20054;-17
2022/04/25 11:16:22;;;;;;;1.40;1.30;;;20.10;54.10;;;;;;4977350;28;20098;-17
2022/04/25 11:19:14;;;;;;;1.25;1.15;;;20.10;54.20;;;;;;4978512;28;20047;-17
2022/04/25 11:21:58;;;;;;;1.15;1.10;;;20.10;54.20;;;;;;4970665;28;20043;-17
2022/04/25 11:24:39;;;;;;;1.25;1.15;;;20.20;54.10;;;;;;4975032;28;20074;-17
2022/04/25 11:27:12;;;;;;;0.77;0.77;;;20.20;54.10;;;;;;4959324;28;20078;-17
2022/04/25 11:29:45;;;;;;;1.00;1.00;;;20.20;54.00;;;;;;4958667;28;20043;-17
2022/04/25 11:32:30;;;;;;;1.10;0.85;;;20.20;54.00;;;;;;4959393;28;20047;-17
2022/04/25 11:34:59;;;;;;;1.10;0.98;;;20.20;54.00;;;;;;4965598;28;20059;-17
2022/04/25 11:37:27;;;;;;;0.80;0.80;;;20.20;54.00;;;;;;4964322;28;20050;-17
2022/04/25 11:39:58;;;;;;;1.20;1.10;;;20.20;54.00;;;;;;4965537;28;20428;-17
2022/04/25 11:42:32;;;;;;;0.93;0.90;;;20.20;54.00;;;;;;4977976;28;20420;-17
2022/04/25 11:44:58;;;;;;;1.30;1.20;;;20.30;54.00;;;;;;4967809;28;20053;-16
2022/04/25 11:47:23;;;;;;;1.17;1.02;;;20.30;53.90;;;;;;4969355;28;20046;-17
2022/04/25 11:50:00;;;;;;;1.10;1.10;;;20.30;54.00;;;;;;4971276;28;20403;-17
2022/04/25 11:52:26;;;;;;;1.02;1.02;;;20.30;54.00;;;;;;4970134;28;20130;-17
2022/04/25 11:54:53;;;;;;;1.25;1.15;;;20.30;54.10;;;;;;4973609;28;20074;-17
2022/04/25 11:57:18;;;;;;;1.30;1.25;;;20.30;54.00;;;;;;4978407;28;20050;-17
2022/04/25 11:59:44;;;;;;;1.00;1.00;;;20.30;54.00;;;;;;4976227;28;20030;-16
2022/04/25 12:02:10;;;;;;;1.42;1.13;;;20.40;54.40;;;;;;4971227;28;20083;-17
2022/04/25 12:04:35;;;;;;;1.13;1.00;;;20.40;54.30;;;;;;4972965;28;20047;-17
2022/04/25 12:07:01;;;;;;;1.40;1.30;;;20.30;54.10;;;;;;4977322;28;20134;-17
2022/04/25 12:17:51;;;;;;;1.48;1.02;;;20.40;54.30;;;;;;4976829;28;20070;-16
2022/04/25 12:20:18;;;;;;;1.40;1.05;;;20.40;54.50;;;;;;4977973;28;20046;-17
2022/04/25 12:22:59;;;;;;;1.10;1.00;;;20.40;54.50;;;;;;4968580;28;20055;-17
2022/04/25 12:25:28;;;;;;;1.75;1.30;;;20.40;54.60;;;;;;4972413;28;20035;-17
2022/04/25 12:28:04;;;;;;;0.80;0.80;;;20.40;54.70;;;;;;4977383;28;20054;-17
2022/04/25 12:30:46;;;;;;;1.05;1.05;;;20.40;54.60;;;;;;4956655;28;20054;-17
2022/04/25 12:33:13;;;;;;;0.80;0.80;;;20.50;54.70;;;;;;4957870;28;20129;-17
2022/04/25 12:35:39;;;;;;;1.10;1.10;;;20.40;54.50;;;;;;5003553;28;20376;-16
2022/04/25 12:38:05;;;;;;;2.90;1.10;;;20.50;54.70;;;;;;4970806;28;20342;-17
2022/04/25 12:40:31;;;;;;;0.98;0.88;;;20.40;54.60;;;;;;4975174;28;20057;-18
2022/04/25 12:42:57;;;;;;;2.28;1.10;;;20.50;54.80;;;;;;4969712;28;20129;-17
2022/04/25 12:45:23;;;;;;;1.00;0.90;;;20.50;54.60;;;;;;4975449;28;20141;-17
2022/04/25 12:47:56;;;;;;;1.35;1.25;;;20.50;54.60;;;;;;4976606;28;20055;-17
2022/04/25 12:50:43;;;;;;;1.13;1.02;;;20.50;54.50;;;;;;4986151;28;20083;-17
2022/04/25 12:53:10;;;;;;;1.67;1.30;;;20.60;54.30;;;;;;4963601;28;20099;-17
2022/04/25 12:55:43;;;;;;;1.20;1.10;;;20.60;53.50;;;;;;4970066;28;20519;-17
2022/04/25 12:58:08;;;;;;;1.42;1.08;;;20.60;53.50;;;;;;4970075;28;20050;-17
2022/04/25 13:00:44;;;;;;;2.33;1.20;;;20.50;52.70;;;;;;5008422;28;20051;-17
2022/04/25 13:03:10;;;;;;;2.40;1.20;;;20.50;52.30;;;;;;4970918;28;20051;-17
2022/04/25 13:05:36;;;;;;;1.40;1.30;;;20.50;51.90;;;;;;4957386;28;20051;-17
2022/04/25 13:08:02;;;;;;;1.80;0.88;;;20.60;51.70;;;;;;4963647;28;20054;-17
2022/04/25 13:10:28;;;;;;;1.92;1.08;;;20.60;50.50;;;;;;4964521;28;20055;-17
2022/04/25 13:12:54;;;;;;;2.55;1.10;;;20.60;50.10;;;;;;4963814;28;20034;-17
2022/04/25 13:15:25;;;;;;;2.58;1.20;;;20.60;49.80;;;;;;4976921;28;20078;-17
2022/04/25 13:17:58;;;;;;;2.20;1.30;;;20.60;49.80;;;;;;4976151;28;20077;-17
2022/04/25 13:20:28;;;;;;;1.67;1.20;;;20.60;49.50;;;;;;4962055;28;20055;-17
2022/04/25 13:22:53;;;;;;;1.98;1.08;;;20.60;48.70;;;;;;4956392;28;20051;-17
2022/04/25 13:25:20;;;;;;;1.10;0.93;;;20.60;48.90;;;;;;4956814;28;20066;-17